createdAt,value
2022-09-15T00:01:41.165Z,100.00
2022-09-15T00:04:10.725Z,100.00
2022-09-15T00:06:39.174Z,100.00
2022-09-15T00:09:07.829Z,100.00
2022-09-15T00:11:38.216Z,100.00
2022-09-15T00:14:09.356Z,100.00
2022-09-15T00:16:38.438Z,100.00
2022-09-15T00:19:07.791Z,100.00
2022-09-15T00:21:40.715Z,100.00
2022-09-15T00:24:10.367Z,100.00
2022-09-15T00:26:39.646Z,100.00
2022-09-15T00:29:08.212Z,100.00
2022-09-15T00:31:36.777Z,100.00
2022-09-15T00:34:08.073Z,100.00
2022-09-15T00:36:36.754Z,100.00
2022-09-15T00:39:06.244Z,100.00
2022-09-15T00:41:35.362Z,100.00
2022-09-15T00:44:28.393Z,100.00
2022-09-15T00:47:18.195Z,100.00
2022-09-15T00:49:50.643Z,99.87
2022-09-15T00:52:33.135Z,100.00
2022-09-15T00:55:07.166Z,99.94
2022-09-15T00:57:50.046Z,100.00
2022-09-15T01:00:20.761Z,99.26
2022-09-15T01:02:51.430Z,99.36
2022-09-15T01:05:23.265Z,99.06
2022-09-15T01:08:00.761Z,98.57
2022-09-15T01:10:34.213Z,97.96
2022-09-15T01:13:09.907Z,98.11
2022-09-15T01:16:13.390Z,98.70
2022-09-15T01:19:12.369Z,99.33
2022-09-15T01:22:26.100Z,99.30
2022-09-15T01:25:32.317Z,99.27
2022-09-15T01:28:30.619Z,98.69
2022-09-15T01:31:17.646Z,98.53
2022-09-15T01:33:59.114Z,98.75
2022-09-15T01:36:48.669Z,97.86
2022-09-15T01:39:34.431Z,97.54
2022-09-15T01:42:08.000Z,97.84
2022-09-15T01:45:02.153Z,97.97
2022-09-15T01:47:31.997Z,98.20
2022-09-15T01:50:10.922Z,98.20
2022-09-15T01:52:45.123Z,98.19
2022-09-15T01:55:37.744Z,97.06
2022-09-15T01:58:06.450Z,95.64
2022-09-15T02:00:40.747Z,95.18
2022-09-15T02:03:20.334Z,95.78
2022-09-15T02:06:03.256Z,96.04
2022-09-15T02:08:48.694Z,96.40
2022-09-15T02:11:20.715Z,95.50
2022-09-15T02:14:11.662Z,95.42
2022-09-15T02:16:45.066Z,94.14
2022-09-15T02:19:34.062Z,95.14
2022-09-15T02:22:18.650Z,94.84
2022-09-15T02:24:53.224Z,95.03
2022-09-15T02:27:26.746Z,93.96
2022-09-15T02:29:59.404Z,93.51
2022-09-15T02:32:29.928Z,93.67
2022-09-15T02:35:00.431Z,94.43
2022-09-15T02:37:30.205Z,94.27
2022-09-15T02:40:00.471Z,93.20
2022-09-15T02:42:32.173Z,92.17
2022-09-15T02:45:01.772Z,93.51
2022-09-15T02:47:30.462Z,93.93
2022-09-15T02:49:59.195Z,92.35
2022-09-15T02:52:27.671Z,91.61
2022-09-15T02:54:56.217Z,91.55
2022-09-15T02:57:25.187Z,91.85
2022-09-15T03:00:11.860Z,91.47
2022-09-15T03:02:41.744Z,93.02
2022-09-15T03:05:11.253Z,90.95
2022-09-15T03:07:40.019Z,89.56
2022-09-15T03:10:10.112Z,91.01
2022-09-15T03:12:49.439Z,92.01
2022-09-15T03:15:20.413Z,91.43
2022-09-15T03:17:49.850Z,91.57
2022-09-15T03:20:29.204Z,89.96
2022-09-15T03:22:58.378Z,89.23
2022-09-15T03:25:27.962Z,90.34
2022-09-15T03:27:56.470Z,90.31
2022-09-15T03:30:25.272Z,90.89
2022-09-15T03:32:53.834Z,90.63
2022-09-15T03:35:22.288Z,89.95
2022-09-15T03:37:50.756Z,91.80
2022-09-15T03:40:19.568Z,88.93
2022-09-15T03:42:48.636Z,88.94
2022-09-15T03:45:17.131Z,89.21
2022-09-15T03:47:45.647Z,88.80
2022-09-15T03:50:14.154Z,88.58
2022-09-15T03:52:42.683Z,88.98
2022-09-15T03:55:11.878Z,88.42
2022-09-15T03:57:40.316Z,86.81
2022-09-15T04:00:09.816Z,88.46
2022-09-15T04:02:38.432Z,87.87
2022-09-15T04:05:07.436Z,86.80
2022-09-15T04:07:35.931Z,87.11
2022-09-15T04:10:05.191Z,84.73
2022-09-15T04:12:33.637Z,83.91
2022-09-15T04:15:02.548Z,84.54
2022-09-15T04:17:31.497Z,86.50
2022-09-15T04:19:59.978Z,86.49
2022-09-15T04:22:31.779Z,87.52
2022-09-15T04:25:00.254Z,88.22
2022-09-15T04:27:30.038Z,88.78
2022-09-15T04:29:58.625Z,88.25
2022-09-15T04:32:27.192Z,86.40
2022-09-15T04:34:55.668Z,85.37
2022-09-15T04:37:24.484Z,85.83
2022-09-15T04:39:53.361Z,86.50
2022-09-15T04:42:22.747Z,87.34
2022-09-15T04:44:51.271Z,87.04
2022-09-15T04:47:20.627Z,85.27
2022-09-15T04:49:49.298Z,85.43
2022-09-15T04:52:18.202Z,86.47
2022-09-15T04:54:46.795Z,87.77
2022-09-15T04:57:15.211Z,86.66
2022-09-15T04:59:43.717Z,87.81
2022-09-15T05:02:12.336Z,88.06
2022-09-15T05:04:40.889Z,87.81
2022-09-15T05:07:09.423Z,88.67
2022-09-15T05:09:37.851Z,88.99
2022-09-15T05:12:06.477Z,88.58
2022-09-15T05:14:34.943Z,89.33
2022-09-15T05:17:03.311Z,89.88
2022-09-15T05:19:31.796Z,90.08
2022-09-15T05:22:00.265Z,88.17
2022-09-15T05:24:28.698Z,89.09
2022-09-15T05:27:11.776Z,90.24
2022-09-15T05:32:26.001Z,91.06
2022-09-15T05:34:54.446Z,91.06
2022-09-15T05:37:22.882Z,92.06
2022-09-15T05:39:51.429Z,91.87
2022-09-15T05:42:20.214Z,91.55
2022-09-15T05:44:48.712Z,91.64
2022-09-15T05:47:17.837Z,91.71
2022-09-15T05:49:46.298Z,90.00
2022-09-15T05:52:14.818Z,90.15
2022-09-15T05:54:43.254Z,89.77
2022-09-15T05:57:11.743Z,90.53
2022-09-15T05:59:40.364Z,90.73
2022-09-15T06:02:10.506Z,90.87
2022-09-15T06:04:39.138Z,90.46
2022-09-15T06:07:07.713Z,91.53
2022-09-15T06:09:36.230Z,92.08
2022-09-15T06:12:04.773Z,90.28
2022-09-15T06:14:33.311Z,87.26
2022-09-15T06:17:01.858Z,89.46
2022-09-15T06:19:30.373Z,88.34
2022-09-15T06:21:58.830Z,90.15
2022-09-15T06:24:27.287Z,90.96
2022-09-15T06:26:55.742Z,91.28
2022-09-15T06:29:24.308Z,91.42
2022-09-15T06:31:52.824Z,91.47
2022-09-15T06:34:21.990Z,92.17
2022-09-15T06:36:50.485Z,93.11
2022-09-15T06:39:19.002Z,93.82
2022-09-15T06:42:01.627Z,94.25
2022-09-15T06:44:31.286Z,94.33
2022-09-15T06:46:59.911Z,95.14
2022-09-15T06:49:28.481Z,96.59
2022-09-15T06:51:57.474Z,98.43
2022-09-15T06:54:26.148Z,98.01
2022-09-15T06:56:54.699Z,97.34
2022-09-15T06:59:24.964Z,99.97
2022-09-15T07:01:57.545Z,99.64
2022-09-15T07:04:27.167Z,100.00
2022-09-15T07:06:55.637Z,100.00
2022-09-15T07:09:24.153Z,100.00
2022-09-15T07:11:52.591Z,100.00
2022-09-15T07:14:21.115Z,99.98
2022-09-15T07:16:49.863Z,99.98
2022-09-15T07:19:18.438Z,100.00
2022-09-15T07:21:46.888Z,100.00
2022-09-15T07:24:15.590Z,100.00
2022-09-15T07:26:44.079Z,100.00
2022-09-15T07:29:12.551Z,100.00
2022-09-15T07:31:41.373Z,100.00
2022-09-15T07:34:09.795Z,100.00
2022-09-15T07:36:38.329Z,100.00
2022-09-15T07:39:07.495Z,100.00
2022-09-15T07:41:36.141Z,100.00
2022-09-15T07:44:05.126Z,100.00
2022-09-15T07:46:34.222Z,100.00
2022-09-15T07:49:04.158Z,100.00
2022-09-15T07:51:32.973Z,100.00
2022-09-15T07:54:01.797Z,100.00
2022-09-15T07:56:30.536Z,100.00
2022-09-15T07:58:59.552Z,100.00
2022-09-15T08:01:28.171Z,100.00
2022-09-15T08:03:57.125Z,100.00
2022-09-15T08:06:27.639Z,100.00
2022-09-15T08:09:00.351Z,100.00
2022-09-15T08:11:30.011Z,100.00
2022-09-15T08:14:02.339Z,100.00
2022-09-15T08:16:30.876Z,100.00
2022-09-15T08:18:59.408Z,100.00
2022-09-15T08:21:28.829Z,100.00
2022-09-15T08:23:59.854Z,100.00
2022-09-15T08:26:29.343Z,100.00
2022-09-15T08:28:58.943Z,100.00
2022-09-15T08:31:27.726Z,100.00
2022-09-15T08:33:57.089Z,100.00
2022-09-15T08:36:28.683Z,100.00
2022-09-15T08:38:57.739Z,100.00
2022-09-15T08:41:47.970Z,100.00
2022-09-15T08:44:39.797Z,100.00
2022-09-15T08:47:31.731Z,100.00
2022-09-15T08:50:12.690Z,100.00
2022-09-15T08:53:04.636Z,100.00
2022-09-15T08:55:56.409Z,100.00
2022-09-15T08:58:39.089Z,100.00
2022-09-15T09:01:51.919Z,100.00
2022-09-15T09:05:12.703Z,100.00
2022-09-15T09:08:17.701Z,100.00
2022-09-15T09:11:12.515Z,100.00
2022-09-15T09:13:53.980Z,100.00
2022-09-15T09:16:40.600Z,100.00
2022-09-15T09:19:31.329Z,100.00
2022-09-15T09:22:29.814Z,100.00
2022-09-15T09:25:11.643Z,100.00
2022-09-15T09:27:51.829Z,100.00
2022-09-15T09:30:30.824Z,100.00
2022-09-15T09:33:11.891Z,100.00
2022-09-15T09:35:53.139Z,100.00
2022-09-15T09:38:32.368Z,100.00
2022-09-15T09:41:02.489Z,100.00
2022-09-15T09:43:32.028Z,100.00
2022-09-15T09:46:00.841Z,100.00
2022-09-15T09:48:31.137Z,100.00
2022-09-15T09:50:59.630Z,100.00
2022-09-15T09:53:28.152Z,100.00
2022-09-15T09:56:16.802Z,100.00
2022-09-15T09:58:45.958Z,100.00
2022-09-15T10:01:20.728Z,100.00
2022-09-15T10:03:49.654Z,100.00
2022-09-15T10:06:23.158Z,100.00
2022-09-15T10:09:00.489Z,100.00
2022-09-15T10:11:54.011Z,100.00
2022-09-15T10:14:33.796Z,100.00
2022-09-15T10:17:29.716Z,100.00
2022-09-15T10:20:00.300Z,100.00
2022-09-15T10:22:36.242Z,100.00
2022-09-15T10:25:27.536Z,100.00
2022-09-15T10:28:14.236Z,100.00
2022-09-15T10:31:04.963Z,100.00
2022-09-15T10:33:41.374Z,100.00
2022-09-15T10:36:19.021Z,100.00
2022-09-15T10:38:59.541Z,100.00
2022-09-15T10:41:30.106Z,100.00
2022-09-15T10:44:04.280Z,100.00
2022-09-15T10:46:51.028Z,100.00
2022-09-15T10:49:32.437Z,100.00
2022-09-15T10:52:27.419Z,100.00
2022-09-15T10:55:37.089Z,100.00
2022-09-15T10:58:17.704Z,100.00
2022-09-15T11:01:03.232Z,100.00
2022-09-15T11:04:02.010Z,100.00
2022-09-15T11:07:11.110Z,100.00
2022-09-15T11:09:52.679Z,100.00
2022-09-15T11:12:49.840Z,100.00
2022-09-15T11:15:25.934Z,100.00
2022-09-15T11:17:57.147Z,100.00
2022-09-15T11:21:00.106Z,100.00
2022-09-15T11:23:55.529Z,100.00
2022-09-15T11:26:30.222Z,100.00
2022-09-15T11:29:08.673Z,100.00
2022-09-15T11:31:44.015Z,100.00
2022-09-15T11:34:28.385Z,100.00
2022-09-15T11:37:21.662Z,100.00
2022-09-15T11:40:03.321Z,100.00
2022-09-15T11:42:53.587Z,100.00
2022-09-15T11:45:35.836Z,100.00
2022-09-15T11:48:15.826Z,100.00
2022-09-15T11:50:47.736Z,100.00
2022-09-15T11:53:42.309Z,100.00
2022-09-15T11:56:13.765Z,100.00
2022-09-15T11:59:03.898Z,100.00
2022-09-15T12:01:55.633Z,100.00
2022-09-15T12:04:31.429Z,100.00
2022-09-15T12:07:15.757Z,100.00
2022-09-15T12:09:44.430Z,100.00
2022-09-15T12:12:20.962Z,100.00
2022-09-15T12:14:52.657Z,100.00
2022-09-15T12:17:28.833Z,100.00
2022-09-15T12:20:22.445Z,100.00
2022-09-15T12:23:06.434Z,100.00
2022-09-15T12:26:00.303Z,100.00
2022-09-15T12:28:52.147Z,100.00
2022-09-15T12:31:29.265Z,100.00
2022-09-15T12:34:08.082Z,100.00
2022-09-15T12:36:44.025Z,100.00
2022-09-15T12:39:31.201Z,100.00
2022-09-15T12:42:28.582Z,100.00
2022-09-15T12:45:05.738Z,100.00
2022-09-15T12:47:41.425Z,100.00
2022-09-15T12:50:22.259Z,100.00
2022-09-15T12:52:54.650Z,100.00
2022-09-15T12:55:36.221Z,100.00
2022-09-15T12:58:19.489Z,100.00
2022-09-15T13:01:16.961Z,100.00
2022-09-15T13:06:26.522Z,100.00
2022-09-15T13:09:04.677Z,100.00
2022-09-15T13:11:38.332Z,100.00
2022-09-15T13:14:11.634Z,100.00
2022-09-15T13:16:45.687Z,100.00
2022-09-15T13:19:23.751Z,100.00
2022-09-15T13:22:13.224Z,100.00
2022-09-15T13:25:03.039Z,100.00
2022-09-15T13:27:38.522Z,100.00
2022-09-15T13:30:25.362Z,100.00
2022-09-15T13:40:11.845Z,100.00
2022-09-15T13:42:56.187Z,100.00
2022-09-15T13:45:44.648Z,100.00
2022-09-15T13:48:40.796Z,100.00
2022-09-15T13:51:30.760Z,100.00
2022-09-15T13:54:05.573Z,100.00
2022-09-15T13:56:41.707Z,100.00
2022-09-15T13:59:19.913Z,100.00
2022-09-15T14:01:49.257Z,100.00
2022-09-15T14:04:20.577Z,100.00
2022-09-15T14:06:58.528Z,100.00
2022-09-15T14:09:44.951Z,100.00
2022-09-15T14:12:16.119Z,100.00
2022-09-15T14:14:51.803Z,100.00
2022-09-15T14:17:29.722Z,100.00
2022-09-15T14:20:00.243Z,100.00
2022-09-15T14:22:33.751Z,100.00
2022-09-15T14:25:15.570Z,100.00
2022-09-15T14:27:47.329Z,100.00
2022-09-15T14:30:25.941Z,100.00
2022-09-15T14:33:00.571Z,100.00
2022-09-15T14:35:36.711Z,100.00
2022-09-15T14:38:05.648Z,100.00
2022-09-15T14:40:38.613Z,100.00
2022-09-15T14:43:41.413Z,100.00
2022-09-15T14:46:14.625Z,100.00
2022-09-15T14:48:43.173Z,100.00
2022-09-15T14:51:34.066Z,100.00
2022-09-15T14:54:04.620Z,100.00
2022-09-15T14:56:40.502Z,100.00
2022-09-15T14:59:51.768Z,100.00
2022-09-15T15:02:31.138Z,100.00
2022-09-15T15:05:10.900Z,100.00
2022-09-15T15:07:41.034Z,100.00
2022-09-15T15:10:17.515Z,100.00
2022-09-15T15:12:49.969Z,100.00
2022-09-15T15:15:19.435Z,100.00
2022-09-15T15:17:51.172Z,100.00
2022-09-15T15:20:33.268Z,100.00
2022-09-15T15:23:24.147Z,100.00
2022-09-15T15:25:54.010Z,100.00
2022-09-15T15:28:32.573Z,100.00
2022-09-15T15:31:22.199Z,100.00
2022-09-15T15:34:00.376Z,100.00
2022-09-15T15:36:31.102Z,100.00
2022-09-15T15:39:02.816Z,100.00
2022-09-15T15:41:42.055Z,100.00
2022-09-15T15:44:17.035Z,100.00
2022-09-15T15:46:49.176Z,100.00
2022-09-15T15:49:18.440Z,100.00
2022-09-15T15:51:46.924Z,100.00
2022-09-15T15:54:15.872Z,100.00
2022-09-15T15:56:44.318Z,100.00
2022-09-15T15:59:14.990Z,100.00
2022-09-15T16:01:44.002Z,100.00
2022-09-15T16:04:13.144Z,100.00
2022-09-15T16:06:43.331Z,100.00
2022-09-15T16:09:14.604Z,100.00
2022-09-15T16:11:44.134Z,100.00
2022-09-15T16:14:14.695Z,100.00
2022-09-15T16:16:43.262Z,100.00
2022-09-15T16:19:14.745Z,100.00
2022-09-15T16:21:43.975Z,100.00
2022-09-15T16:24:15.587Z,100.00
2022-09-15T16:26:45.461Z,100.00
2022-09-15T16:29:14.067Z,100.00
2022-09-15T16:31:43.901Z,100.00
2022-09-15T16:34:20.914Z,100.00
2022-09-15T16:36:49.328Z,100.00
2022-09-15T16:39:17.846Z,100.00
2022-09-15T16:41:46.252Z,100.00
2022-09-15T16:44:20.748Z,100.00
2022-09-15T16:46:49.397Z,100.00
2022-09-15T16:49:18.487Z,100.00
2022-09-15T16:51:46.883Z,100.00
2022-09-15T16:54:21.466Z,100.00
2022-09-15T16:56:50.063Z,100.00
2022-09-15T16:59:18.898Z,100.00
2022-09-15T17:01:47.424Z,100.00
2022-09-15T17:04:17.701Z,100.00
2022-09-15T17:06:46.553Z,100.00
2022-09-15T17:09:15.002Z,100.00
2022-09-15T17:11:43.567Z,100.00
2022-09-15T17:14:17.450Z,100.00
2022-09-15T17:16:48.387Z,100.00
2022-09-15T17:19:16.992Z,100.00
2022-09-15T17:21:45.958Z,100.00
2022-09-15T17:24:14.443Z,100.00
2022-09-15T17:26:42.960Z,100.00
2022-09-15T17:29:11.426Z,100.00
2022-09-15T17:31:39.920Z,100.00
2022-09-15T17:34:15.415Z,100.00
2022-09-15T17:36:43.872Z,100.00
2022-09-15T17:39:12.277Z,100.00
2022-09-15T17:41:40.773Z,100.00
2022-09-15T17:44:12.696Z,100.00
2022-09-15T17:46:41.214Z,100.00
2022-09-15T17:49:09.779Z,100.00
2022-09-15T17:51:38.307Z,100.00
2022-09-15T17:54:08.460Z,100.00
2022-09-15T17:56:37.006Z,100.00
2022-09-15T17:59:05.425Z,100.00
2022-09-15T18:01:34.032Z,100.00
2022-09-15T18:04:03.354Z,100.00
2022-09-15T18:06:31.710Z,100.00
2022-09-15T18:09:00.297Z,100.00
2022-09-15T18:11:29.883Z,100.00
2022-09-15T18:13:58.927Z,100.00
2022-09-15T18:16:27.413Z,100.00
2022-09-15T18:18:55.860Z,100.00
2022-09-15T18:21:30.234Z,100.00
2022-09-15T18:23:59.611Z,100.00
2022-09-15T18:26:28.114Z,100.00
2022-09-15T18:28:57.271Z,100.00
2022-09-15T18:31:25.754Z,100.00
2022-09-15T18:33:54.444Z,100.00
2022-09-15T18:36:23.128Z,100.00
2022-09-15T18:38:51.642Z,100.00
2022-09-15T18:41:20.465Z,100.00
2022-09-15T18:43:51.675Z,100.00
2022-09-15T18:46:21.486Z,100.00
2022-09-15T18:48:50.126Z,100.00
2022-09-15T18:51:23.950Z,100.00
2022-09-15T18:53:58.512Z,100.00
2022-09-15T18:56:26.998Z,100.00
2022-09-15T18:58:56.344Z,100.00
2022-09-15T19:01:25.197Z,100.00
2022-09-15T19:03:53.786Z,100.00
2022-09-15T19:06:22.253Z,100.00
2022-09-15T19:08:50.758Z,100.00
2022-09-15T19:11:19.254Z,100.00
2022-09-15T19:13:47.771Z,100.00
2022-09-15T19:16:16.446Z,100.00
2022-09-15T19:18:47.171Z,100.00
2022-09-15T19:21:15.657Z,100.00
2022-09-15T19:23:44.174Z,100.00
2022-09-15T19:26:14.839Z,100.00
2022-09-15T19:28:46.926Z,100.00
2022-09-15T19:31:15.614Z,100.00
2022-09-15T19:33:44.176Z,100.00
2022-09-15T19:36:28.937Z,100.00
2022-09-15T19:38:59.291Z,100.00
2022-09-15T19:41:28.226Z,100.00
2022-09-15T19:43:58.618Z,100.00
2022-09-15T19:46:27.479Z,100.00
2022-09-15T19:48:56.777Z,100.00
2022-09-15T19:51:26.025Z,100.00
2022-09-15T19:53:58.531Z,100.00
2022-09-15T19:56:28.834Z,100.00
2022-09-15T19:58:59.231Z,100.00
2022-09-15T20:01:30.543Z,100.00
2022-09-15T20:03:59.111Z,100.00
2022-09-15T20:06:32.147Z,100.00
2022-09-15T20:09:01.203Z,100.00
2022-09-15T20:11:31.138Z,100.00
2022-09-15T20:13:59.873Z,100.00
2022-09-15T20:16:28.519Z,100.00
2022-09-15T20:18:58.424Z,100.00
2022-09-15T20:21:49.435Z,100.00
2022-09-15T20:24:19.936Z,100.00
2022-09-15T20:26:48.721Z,100.00
2022-09-15T20:29:17.184Z,100.00
2022-09-15T20:31:45.921Z,100.00
2022-09-15T20:34:14.648Z,100.00
2022-09-15T20:36:43.084Z,100.00
2022-09-15T20:39:15.327Z,100.00
2022-09-15T20:41:47.594Z,100.00
2022-09-15T20:44:16.658Z,100.00
2022-09-15T20:46:45.243Z,100.00
2022-09-15T20:49:13.900Z,100.00
2022-09-15T20:51:42.398Z,100.00
2022-09-15T20:54:11.971Z,100.00
2022-09-15T20:56:40.466Z,100.00
2022-09-15T20:59:11.363Z,100.00
2022-09-15T21:01:41.280Z,100.00
2022-09-15T21:04:10.958Z,100.00
2022-09-15T21:06:39.778Z,100.00
2022-09-15T21:09:08.575Z,100.00
2022-09-15T21:11:37.056Z,100.00
2022-09-15T21:14:05.780Z,100.00
2022-09-15T21:16:35.936Z,100.00
2022-09-15T21:19:04.828Z,100.00
2022-09-15T21:21:34.745Z,100.00
2022-09-15T21:24:05.977Z,100.00
2022-09-15T21:26:57.182Z,100.00
2022-09-15T21:29:25.998Z,100.00
2022-09-15T21:31:54.842Z,100.00
2022-09-15T21:34:23.478Z,100.00
2022-09-15T21:36:52.836Z,100.00
2022-09-15T21:39:21.369Z,100.00
2022-09-15T21:41:50.777Z,100.00
2022-09-15T21:44:19.352Z,100.00
2022-09-15T21:46:48.318Z,100.00
2022-09-15T21:49:19.073Z,100.00
2022-09-15T21:51:47.671Z,100.00
2022-09-15T21:54:16.556Z,100.00
2022-09-15T21:56:45.132Z,100.00
2022-09-15T21:59:14.139Z,100.00
2022-09-15T22:01:42.733Z,100.00
2022-09-15T22:04:11.629Z,100.00
2022-09-15T22:06:42.343Z,100.00
2022-09-15T22:09:15.567Z,100.00
2022-09-15T22:11:44.693Z,100.00
2022-09-15T22:14:14.159Z,100.00
2022-09-15T22:16:44.343Z,100.00
2022-09-15T22:19:14.300Z,100.00
2022-09-15T22:21:43.203Z,100.00
2022-09-15T22:24:14.010Z,100.00
2022-09-15T22:26:43.704Z,100.00
2022-09-15T22:29:13.182Z,100.00
2022-09-15T22:31:42.978Z,100.00
2022-09-15T22:34:11.902Z,100.00
2022-09-15T22:36:40.407Z,100.00
2022-09-15T22:39:08.884Z,100.00
2022-09-15T22:41:39.806Z,100.00
2022-09-15T22:44:20.699Z,100.00
2022-09-15T22:46:50.731Z,100.00
2022-09-15T22:49:19.291Z,100.00
2022-09-15T22:51:47.837Z,100.00
2022-09-15T22:54:16.484Z,100.00
2022-09-15T22:56:46.778Z,100.00
2022-09-15T22:59:15.672Z,100.00
2022-09-15T23:01:44.585Z,100.00
2022-09-15T23:04:13.335Z,100.00
2022-09-15T23:06:41.973Z,100.00
2022-09-15T23:09:11.807Z,100.00
2022-09-15T23:11:41.762Z,100.00
2022-09-15T23:14:19.334Z,100.00
2022-09-15T23:16:47.944Z,100.00
2022-09-15T23:19:16.607Z,100.00
2022-09-15T23:21:45.211Z,100.00
2022-09-15T23:24:13.719Z,100.00
2022-09-15T23:26:42.196Z,100.00
2022-09-15T23:29:11.092Z,100.00
2022-09-15T23:31:39.723Z,100.00
2022-09-15T23:34:08.242Z,100.00
2022-09-15T23:36:36.838Z,100.00
2022-09-15T23:39:05.404Z,100.00
2022-09-15T23:41:33.824Z,100.00
2022-09-15T23:44:02.206Z,100.00
2022-09-15T23:46:30.896Z,100.00
2022-09-15T23:48:59.789Z,100.00
2022-09-15T23:51:28.325Z,100.00
2022-09-15T23:53:56.764Z,100.00
2022-09-15T23:56:25.236Z,100.00
2022-09-15T23:58:53.703Z,100.00
